Time;durP1;ratioP1;P1;durP2;ratioP2;P2;SDS_P1;SDS_P2;PMS_P1;PMS_P2;Temp;Humidity;BMP_temperature;BMP_pressure;BME280_temperature;BME280_humidity;BME280_pressure;Samples;Min_cycle;Max_cycle;Signal;HPM_P1;HPM_P2
2021/03/16 00:01:50;;;;;;;21.77;12.32;;;;;;;;;;5025852;28;20496;-49
2021/03/16 00:04:17;;;;;;;58.25;26.70;;;;;;;;;;5026197;28;20039;-49
2021/03/16 00:06:43;;;;;;;58.03;28.67;;;;;;;;;;5025884;28;20021;-49
2021/03/16 00:09:10;;;;;;;57.45;26.40;;;;;;;;;;5007304;28;20052;-43
2021/03/16 00:11:36;;;;;;;74.70;37.80;;;;;;;;;;5025795;28;20021;-44
2021/03/16 00:14:02;;;;;;;78.47;36.03;;;;;;;;;;5026065;28;20111;-46
2021/03/16 00:16:29;;;;;;;31.67;17.73;;;;;;;;;;5025940;28;20540;-50
2021/03/16 00:18:55;;;;;;;62.78;33.00;;;;;;;;;;5025784;28;20017;-46
2021/03/16 00:21:21;;;;;;;52.85;24.95;;;;;;;;;;5025708;28;20028;-46
2021/03/16 00:23:48;;;;;;;55.65;27.60;;;;;;;;;;5025575;28;20025;-48
2021/03/16 00:26:14;;;;;;;54.05;28.65;;;;;;;;;;5025949;28;20546;-47
2021/03/16 00:28:40;;;;;;;57.10;30.27;;;;;;;;;;5026080;28;20039;-45
2021/03/16 00:31:06;;;;;;;51.70;23.73;;;;;;;;;;5026184;28;20052;-46
2021/03/16 00:33:32;;;;;;;69.05;34.45;;;;;;;;;;5025592;28;20086;-46
2021/03/16 00:36:01;;;;;;;72.15;35.95;;;;;;;;;;5072150;28;20029;-46
2021/03/16 00:38:27;;;;;;;79.22;39.25;;;;;;;;;;5075708;28;20064;-48
2021/03/16 00:40:53;;;;;;;65.10;33.17;;;;;;;;;;5075361;28;20058;-46
2021/03/16 00:43:19;;;;;;;52.90;28.38;;;;;;;;;;5075772;28;20063;-49
2021/03/16 00:45:45;;;;;;;41.15;22.98;;;;;;;;;;5075850;28;20078;-48
2021/03/16 00:48:18;;;;;;;69.68;33.78;;;;;;;;;;5075452;28;20024;-46
2021/03/16 00:50:44;;;;;;;78.22;37.10;;;;;;;;;;5075662;28;20028;-50
2021/03/16 00:53:10;;;;;;;82.50;38.40;;;;;;;;;;5075645;28;20145;-47
2021/03/16 00:55:37;;;;;;;56.40;30.25;;;;;;;;;;5075775;28;20044;-47
2021/03/16 00:58:05;;;;;;;111.20;52.17;;;;;;;;;;5075593;28;20021;-49
2021/03/16 01:00:31;;;;;;;77.97;37.17;;;;;;;;;;5075353;28;20058;-46
2021/03/16 01:02:58;;;;;;;41.35;20.73;;;;;;;;;;5075271;28;20024;-46
2021/03/16 01:05:24;;;;;;;65.70;32.80;;;;;;;;;;5075478;28;20021;-45
2021/03/16 01:07:50;;;;;;;67.70;32.55;;;;;;;;;;5074977;28;20044;-45
2021/03/16 01:10:17;;;;;;;82.22;39.25;;;;;;;;;;5075231;28;20534;-47
2021/03/16 01:12:43;;;;;;;129.55;61.08;;;;;;;;;;5075230;28;20025;-45
2021/03/16 01:15:10;;;;;;;112.50;54.60;;;;;;;;;;5075097;28;20032;-50
2021/03/16 01:17:36;;;;;;;89.30;43.38;;;;;;;;;;5075175;28;20069;-46
2021/03/16 01:20:05;;;;;;;96.50;47.40;;;;;;;;;;5075060;28;20028;-46
2021/03/16 01:22:31;;;;;;;91.72;44.28;;;;;;;;;;5075215;28;20021;-48
2021/03/16 01:24:57;;;;;;;106.80;51.40;;;;;;;;;;5075217;28;20023;-46
2021/03/16 01:27:23;;;;;;;42.72;21.40;;;;;;;;;;5074903;28;20020;-47
2021/03/16 01:29:49;;;;;;;38.85;20.48;;;;;;;;;;5056021;28;20063;-48
2021/03/16 01:32:15;;;;;;;67.47;35.05;;;;;;;;;;5054746;28;20060;-48
2021/03/16 01:34:41;;;;;;;65.50;32.45;;;;;;;;;;5054892;28;20028;-47
2021/03/16 01:37:07;;;;;;;27.30;14.80;;;;;;;;;;5054784;28;20478;-50
2021/03/16 01:39:33;;;;;;;44.00;23.17;;;;;;;;;;5054853;28;20028;-50
2021/03/16 01:42:00;;;;;;;44.60;22.60;;;;;;;;;;5054707;28;20017;-49
2021/03/16 01:44:26;;;;;;;67.53;33.88;;;;;;;;;;5054587;28;20041;-48
2021/03/16 01:46:52;;;;;;;33.17;18.33;;;;;;;;;;5053224;28;20047;-49
2021/03/16 01:49:18;;;;;;;53.42;27.10;;;;;;;;;;5054393;28;20087;-48
2021/03/16 01:51:44;;;;;;;79.75;39.42;;;;;;;;;;5053803;28;20096;-47
2021/03/16 01:54:10;;;;;;;87.85;39.72;;;;;;;;;;5054532;28;20032;-48
2021/03/16 01:56:38;;;;;;;54.55;29.35;;;;;;;;;;5054624;28;20427;-48
2021/03/16 01:59:04;;;;;;;57.65;32.20;;;;;;;;;;5054251;28;20029;-49
2021/03/16 02:01:30;;;;;;;63.58;31.67;;;;;;;;;;5054291;28;20021;-47
2021/03/16 02:03:57;;;;;;;62.80;32.50;;;;;;;;;;5054205;28;20085;-48
2021/03/16 02:06:41;;;;;;;82.05;40.53;;;;;;;;;;5054216;28;20163;-45
2021/03/16 02:09:19;;;;;;;90.85;46.20;;;;;;;;;;5053950;28;20046;-48
2021/03/16 02:11:49;;;;;;;34.78;18.27;;;;;;;;;;5036611;28;20029;-49
2021/03/16 02:14:32;;;;;;;27.27;14.88;;;;;;;;;;5036131;28;20025;-49
2021/03/16 02:17:10;;;;;;;28.75;16.75;;;;;;;;;;5036513;28;20079;-49
2021/03/16 02:19:36;;;;;;;52.65;27.13;;;;;;;;;;5053968;28;20036;-48
2021/03/16 02:22:03;;;;;;;72.63;36.08;;;;;;;;;;5053870;28;20029;-49
2021/03/16 02:24:54;;;;;;;28.65;14.40;;;;;;;;;;5036288;28;20032;-50
2021/03/16 02:27:22;;;;;;;70.40;34.95;;;;;;;;;;4972965;28;20418;-50
2021/03/16 02:29:48;;;;;;;57.03;28.48;;;;;;;;;;4957025;28;20522;-48
2021/03/16 02:32:21;;;;;;;72.75;35.25;;;;;;;;;;4956658;28;20475;-48
2021/03/16 02:34:49;;;;;;;87.63;42.10;;;;;;;;;;4957000;28;20135;-47
2021/03/16 02:37:15;;;;;;;65.03;31.77;;;;;;;;;;4956711;28;20066;-48
2021/03/16 02:39:43;;;;;;;78.28;38.03;;;;;;;;;;4956599;28;20042;-48
2021/03/16 02:42:09;;;;;;;65.38;31.67;;;;;;;;;;4972834;28;20034;-49
2021/03/16 02:44:36;;;;;;;53.80;25.08;;;;;;;;;;4956724;28;20026;-49
2021/03/16 02:47:03;;;;;;;68.32;32.88;;;;;;;;;;4956799;28;20408;-50
2021/03/16 02:49:29;;;;;;;39.42;19.77;;;;;;;;;;4972784;28;20065;-50
2021/03/16 02:52:00;;;;;;;77.47;37.50;;;;;;;;;;4956962;28;20050;-48
2021/03/16 02:54:26;;;;;;;45.50;23.90;;;;;;;;;;4956802;28;20054;-51
2021/03/16 02:56:52;;;;;;;39.70;20.55;;;;;;;;;;4972620;28;20023;-50
2021/03/16 02:59:18;;;;;;;51.72;24.67;;;;;;;;;;4956739;28;20086;-48
2021/03/16 03:01:45;;;;;;;38.28;19.95;;;;;;;;;;4972470;28;20073;-48
2021/03/16 03:04:11;;;;;;;73.20;36.17;;;;;;;;;;4989267;28;20040;-48
2021/03/16 03:06:41;;;;;;;44.78;22.92;;;;;;;;;;5035531;28;20031;-51
2021/03/16 03:09:07;;;;;;;46.05;22.08;;;;;;;;;;5034893;28;20053;-50
2021/03/16 03:11:34;;;;;;;25.17;12.50;;;;;;;;;;5053574;28;20071;-51
2021/03/16 03:14:00;;;;;;;38.22;17.98;;;;;;;;;;5053137;28;20032;-49
2021/03/16 03:16:27;;;;;;;28.75;15.40;;;;;;;;;;5053294;28;20025;-48
2021/03/16 03:18:53;;;;;;;38.80;19.65;;;;;;;;;;5053243;28;20495;-49
2021/03/16 03:21:39;;;;;;;24.70;13.13;;;;;;;;;;5053259;28;20036;-50
2021/03/16 03:24:06;;;;;;;25.80;13.85;;;;;;;;;;5039411;28;20033;-46
2021/03/16 03:26:36;;;;;;;43.17;21.25;;;;;;;;;;5053181;28;20096;-46
2021/03/16 03:29:02;;;;;;;55.55;25.60;;;;;;;;;;5053220;28;20482;-50
2021/03/16 03:31:29;;;;;;;128.20;65.03;;;;;;;;;;5053063;28;20048;-49
2021/03/16 03:33:57;;;;;;;51.15;26.35;;;;;;;;;;5053065;28;20063;-48
2021/03/16 03:36:23;;;;;;;39.33;20.05;;;;;;;;;;5052832;28;20520;-50
2021/03/16 03:38:49;;;;;;;46.03;24.63;;;;;;;;;;5035313;28;20083;-48
2021/03/16 03:41:15;;;;;;;39.75;22.33;;;;;;;;;;5052997;28;20026;-47
2021/03/16 03:43:41;;;;;;;30.25;17.58;;;;;;;;;;5035305;28;20435;-49
2021/03/16 03:46:07;;;;;;;37.17;18.48;;;;;;;;;;5035235;28;20025;-48
2021/03/16 03:48:35;;;;;;;26.30;14.73;;;;;;;;;;5035347;28;20025;-48
2021/03/16 03:51:04;;;;;;;27.42;16.13;;;;;;;;;;5035244;28;20029;-47
2021/03/16 03:53:30;;;;;;;27.27;14.38;;;;;;;;;;5035161;28;20222;-48
2021/03/16 03:55:56;;;;;;;20.10;12.13;;;;;;;;;;5053154;28;20079;-49
2021/03/16 03:58:22;;;;;;;18.48;11.95;;;;;;;;;;5052971;28;20389;-48
2021/03/16 04:00:48;;;;;;;29.33;13.93;;;;;;;;;;5052762;28;20078;-49
2021/03/16 04:03:14;;;;;;;19.00;11.07;;;;;;;;;;5034765;28;20057;-49
2021/03/16 04:05:41;;;;;;;18.15;10.10;;;;;;;;;;5034888;28;20090;-46
2021/03/16 04:08:08;;;;;;;17.08;9.32;;;;;;;;;;5052500;28;20044;-48
2021/03/16 04:10:36;;;;;;;19.17;9.57;;;;;;;;;;5034971;28;20507;-46
2021/03/16 04:13:03;;;;;;;20.25;10.75;;;;;;;;;;5052749;28;20069;-47
2021/03/16 04:15:29;;;;;;;17.55;10.32;;;;;;;;;;5053751;28;20385;-49
2021/03/16 04:17:55;;;;;;;16.20;8.02;;;;;;;;;;5038645;28;20113;-48
2021/03/16 04:20:24;;;;;;;19.05;10.27;;;;;;;;;;5038475;28;20036;-49
2021/03/16 04:22:50;;;;;;;15.27;9.30;;;;;;;;;;5056359;28;20052;-49
2021/03/16 04:25:16;;;;;;;18.55;10.15;;;;;;;;;;5038061;28;20116;-48
2021/03/16 04:27:42;;;;;;;14.18;8.90;;;;;;;;;;5056054;28;20552;-48
2021/03/16 04:30:09;;;;;;;18.90;10.88;;;;;;;;;;5055976;28;20503;-47
2021/03/16 04:32:35;;;;;;;18.35;12.15;;;;;;;;;;5055995;28;20036;-46
2021/03/16 04:35:01;;;;;;;15.25;10.82;;;;;;;;;;5055995;28;20021;-46
2021/03/16 04:37:27;;;;;;;19.00;13.88;;;;;;;;;;5055934;28;20037;-47
2021/03/16 04:39:53;;;;;;;17.02;13.45;;;;;;;;;;5056071;28;20445;-46
2021/03/16 04:42:19;;;;;;;27.30;17.75;;;;;;;;;;5055980;28;20013;-48
2021/03/16 04:44:45;;;;;;;13.85;10.05;;;;;;;;;;5055952;28;20052;-48
2021/03/16 04:47:14;;;;;;;17.33;11.80;;;;;;;;;;5055600;28;20017;-47
2021/03/16 04:49:40;;;;;;;17.58;13.35;;;;;;;;;;5055497;28;20024;-49
2021/03/16 04:52:06;;;;;;;21.98;15.98;;;;;;;;;;5055793;28;20500;-48
2021/03/16 04:54:32;;;;;;;21.52;13.05;;;;;;;;;;5055565;28;20029;-49
2021/03/16 04:56:58;;;;;;;18.58;12.73;;;;;;;;;;5055540;28;20383;-47
2021/03/16 04:59:24;;;;;;;33.00;19.38;;;;;;;;;;5055556;28;20508;-49
2021/03/16 05:01:52;;;;;;;27.58;18.92;;;;;;;;;;5055505;28;20384;-48
2021/03/16 05:04:18;;;;;;;70.72;64.03;;;;;;;;;;5055573;28;20032;-46
2021/03/16 05:06:45;;;;;;;34.65;26.50;;;;;;;;;;5055326;28;20689;-48
2021/03/16 05:09:12;;;;;;;25.27;18.02;;;;;;;;;;5054892;28;20053;-49
2021/03/16 05:11:38;;;;;;;16.48;11.80;;;;;;;;;;5055524;28;20450;-48
2021/03/16 05:14:04;;;;;;;18.98;11.07;;;;;;;;;;5055254;28;20024;-48
2021/03/16 05:16:33;;;;;;;17.65;9.88;;;;;;;;;;5055165;28;20457;-47
2021/03/16 05:19:01;;;;;;;13.50;8.57;;;;;;;;;;5055370;28;20032;-48
2021/03/16 05:21:27;;;;;;;18.38;10.43;;;;;;;;;;5054005;28;20082;-48
2021/03/16 05:23:53;;;;;;;19.10;10.48;;;;;;;;;;5055042;28;20477;-48
2021/03/16 05:26:19;;;;;;;13.43;8.90;;;;;;;;;;5055116;28;20029;-47
2021/03/16 05:28:47;;;;;;;16.23;10.52;;;;;;;;;;5055069;28;20021;-48
2021/03/16 05:31:13;;;;;;;15.02;9.50;;;;;;;;;;5054820;28;20021;-48
2021/03/16 05:33:39;;;;;;;12.40;9.15;;;;;;;;;;5053503;28;20037;-49
2021/03/16 05:36:06;;;;;;;12.70;9.10;;;;;;;;;;5054755;28;20025;-49
2021/03/16 05:38:32;;;;;;;17.73;11.10;;;;;;;;;;5054565;28;20500;-48
2021/03/16 05:40:58;;;;;;;37.03;21.08;;;;;;;;;;5054552;28;20033;-49
2021/03/16 05:43:24;;;;;;;51.25;29.00;;;;;;;;;;5054511;28;20025;-47
2021/03/16 05:45:50;;;;;;;50.15;25.33;;;;;;;;;;5054717;28;20029;-47
2021/03/16 05:48:18;;;;;;;27.50;17.88;;;;;;;;;;5036793;28;20029;-48
2021/03/16 05:50:44;;;;;;;30.23;16.58;;;;;;;;;;5036858;28;20025;-48
2021/03/16 05:53:10;;;;;;;20.38;15.95;;;;;;;;;;5036809;28;20025;-48
2021/03/16 05:55:36;;;;;;;50.42;29.55;;;;;;;;;;5036806;28;20029;-48
2021/03/16 05:58:02;;;;;;;56.72;28.40;;;;;;;;;;5054487;28;20071;-47
2021/03/16 06:00:28;;;;;;;48.38;23.83;;;;;;;;;;5054348;28;20455;-47
2021/03/16 06:02:54;;;;;;;40.28;21.70;;;;;;;;;;5054175;28;20021;-50
2021/03/16 06:05:20;;;;;;;33.40;17.73;;;;;;;;;;5054232;28;20029;-49
2021/03/16 06:07:50;;;;;;;24.27;12.68;;;;;;;;;;5035864;28;20178;-47
2021/03/16 06:10:19;;;;;;;28.83;16.45;;;;;;;;;;5054360;28;20079;-48
2021/03/16 06:12:45;;;;;;;20.05;11.98;;;;;;;;;;5054057;28;20025;-48
2021/03/16 06:15:12;;;;;;;51.70;23.35;;;;;;;;;;5054038;28;20048;-47
2021/03/16 06:17:46;;;;;;;50.70;25.45;;;;;;;;;;5053824;28;20036;-48
2021/03/16 06:20:13;;;;;;;58.33;27.90;;;;;;;;;;5053915;28;20096;-48
2021/03/16 06:22:39;;;;;;;41.55;21.38;;;;;;;;;;5053752;28;20059;-50
2021/03/16 06:25:08;;;;;;;33.53;17.63;;;;;;;;;;5053800;28;20086;-50
2021/03/16 06:27:34;;;;;;;29.27;16.65;;;;;;;;;;5053907;28;20051;-48
2021/03/16 06:30:01;;;;;;;39.10;20.88;;;;;;;;;;5053622;28;20045;-48
2021/03/16 06:32:40;;;;;;;29.30;14.93;;;;;;;;;;5053602;28;20052;-48
2021/03/16 06:35:06;;;;;;;23.38;13.50;;;;;;;;;;5053861;28;20512;-48
2021/03/16 06:37:34;;;;;;;27.58;15.65;;;;;;;;;;5053583;28;20040;-47
2021/03/16 06:40:01;;;;;;;29.95;16.23;;;;;;;;;;5053247;28;20087;-48
2021/03/16 06:42:29;;;;;;;20.48;13.07;;;;;;;;;;5052137;28;20029;-48
2021/03/16 06:44:58;;;;;;;28.20;15.13;;;;;;;;;;5053599;28;20400;-48
2021/03/16 06:47:25;;;;;;;23.17;12.32;;;;;;;;;;5053337;28;20097;-49
2021/03/16 06:49:51;;;;;;;23.73;13.82;;;;;;;;;;5053486;28;20032;-49
2021/03/16 06:52:19;;;;;;;25.65;12.82;;;;;;;;;;5053523;28;20067;-50
2021/03/16 06:54:45;;;;;;;18.75;12.45;;;;;;;;;;5053463;28;20017;-49
2021/03/16 06:57:12;;;;;;;23.80;13.52;;;;;;;;;;5053366;28;20033;-46
2021/03/16 06:59:38;;;;;;;20.13;13.25;;;;;;;;;;5053278;28;20028;-48
2021/03/16 07:02:11;;;;;;;38.83;20.35;;;;;;;;;;5053182;28;20075;-49
2021/03/16 07:04:41;;;;;;;26.70;16.23;;;;;;;;;;5053454;28;20029;-47
2021/03/16 07:07:09;;;;;;;23.10;13.70;;;;;;;;;;5052780;28;20033;-46
2021/03/16 07:09:35;;;;;;;24.75;15.48;;;;;;;;;;5053226;28;20124;-48
2021/03/16 07:12:01;;;;;;;25.13;13.63;;;;;;;;;;5035452;28;20017;-45
2021/03/16 07:14:27;;;;;;;17.25;11.60;;;;;;;;;;5035442;28;20048;-48
2021/03/16 07:16:54;;;;;;;20.77;12.73;;;;;;;;;;5035201;28;20079;-46
2021/03/16 07:19:20;;;;;;;20.05;12.25;;;;;;;;;;5052960;28;20376;-48
2021/03/16 07:21:51;;;;;;;19.40;11.43;;;;;;;;;;5035494;28;20017;-49
2021/03/16 07:24:20;;;;;;;18.80;11.07;;;;;;;;;;5053042;28;20465;-48
2021/03/16 07:26:50;;;;;;;19.08;10.85;;;;;;;;;;5052962;28;20032;-48
2021/03/16 07:29:17;;;;;;;20.45;10.80;;;;;;;;;;5052808;28;20032;-48
2021/03/16 07:31:43;;;;;;;20.13;12.00;;;;;;;;;;5053012;28;20033;-49
2021/03/16 07:34:10;;;;;;;22.00;13.48;;;;;;;;;;5052875;28;20014;-50
2021/03/16 07:36:37;;;;;;;20.55;12.75;;;;;;;;;;5052783;28;20021;-50
2021/03/16 07:39:04;;;;;;;16.15;10.95;;;;;;;;;;5052881;28;20107;-48
2021/03/16 07:41:30;;;;;;;17.05;10.65;;;;;;;;;;5052820;28;20477;-51
2021/03/16 07:44:02;;;;;;;15.07;10.38;;;;;;;;;;5035320;28;20033;-50
2021/03/16 07:46:40;;;;;;;15.43;10.75;;;;;;;;;;5052714;28;20540;-51
2021/03/16 07:49:07;;;;;;;16.67;10.63;;;;;;;;;;5052945;28;20047;-49
2021/03/16 07:51:33;;;;;;;17.52;11.57;;;;;;;;;;5037860;28;20032;-45
2021/03/16 07:54:03;;;;;;;18.23;10.90;;;;;;;;;;5056675;28;20025;-48
2021/03/16 07:56:31;;;;;;;16.13;10.70;;;;;;;;;;5056603;28;20467;-47
2021/03/16 07:58:57;;;;;;;17.05;10.82;;;;;;;;;;5056449;28;20472;-51
2021/03/16 08:01:23;;;;;;;15.38;10.50;;;;;;;;;;5056463;28;20032;-50
2021/03/16 08:03:50;;;;;;;15.45;9.88;;;;;;;;;;5056123;28;20025;-48
2021/03/16 08:06:25;;;;;;;17.70;10.55;;;;;;;;;;5056536;28;20017;-52
2021/03/16 08:08:51;;;;;;;47.33;25.40;;;;;;;;;;5056193;28;20480;-48
2021/03/16 08:11:17;;;;;;;24.55;12.43;;;;;;;;;;5054896;28;20048;-51
2021/03/16 08:13:56;;;;;;;34.72;19.25;;;;;;;;;;5056253;28;20017;-51
2021/03/16 08:16:32;;;;;;;71.43;35.42;;;;;;;;;;5056393;28;20021;-51
2021/03/16 08:19:08;;;;;;;57.80;30.10;;;;;;;;;;5056103;28;20032;-51
2021/03/16 08:21:37;;;;;;;67.45;34.15;;;;;;;;;;5056054;28;20025;-52
2021/03/16 08:24:04;;;;;;;26.92;16.55;;;;;;;;;;5055972;28;20028;-48
2021/03/16 08:26:30;;;;;;;25.70;15.85;;;;;;;;;;5056221;28;20032;-50
2021/03/16 08:28:56;;;;;;;38.83;20.65;;;;;;;;;;5054788;28;20469;-46
2021/03/16 08:31:22;;;;;;;39.38;23.25;;;;;;;;;;5054471;28;20462;-50
2021/03/16 08:33:48;;;;;;;59.35;33.75;;;;;;;;;;5055305;28;20013;-53
2021/03/16 08:36:17;;;;;;;42.22;23.95;;;;;;;;;;5037622;28;20029;-48
2021/03/16 08:38:44;;;;;;;39.00;22.73;;;;;;;;;;5055062;28;20025;-50
2021/03/16 08:41:16;;;;;;;44.17;24.33;;;;;;;;;;5055413;28;20024;-45
2021/03/16 08:43:51;;;;;;;41.67;23.38;;;;;;;;;;5045565;28;20022;-51
2021/03/16 08:46:30;;;;;;;50.03;27.83;;;;;;;;;;5035852;28;20022;-52
2021/03/16 08:48:56;;;;;;;43.38;24.58;;;;;;;;;;5035658;28;20104;-52
2021/03/16 08:51:26;;;;;;;49.83;31.27;;;;;;;;;;5035544;28;20029;-50
2021/03/16 08:53:52;;;;;;;49.40;28.90;;;;;;;;;;5035423;28;20021;-45
2021/03/16 08:56:22;;;;;;;34.67;18.90;;;;;;;;;;5035511;28;20071;-47
2021/03/16 08:58:48;;;;;;;55.90;32.45;;;;;;;;;;5035441;28;20022;-51
2021/03/16 09:01:24;;;;;;;55.70;30.52;;;;;;;;;;5033894;28;20105;-51
2021/03/16 09:03:52;;;;;;;63.03;34.20;;;;;;;;;;5034931;28;20087;-48
2021/03/16 09:06:23;;;;;;;26.63;15.38;;;;;;;;;;5035778;28;20173;-50
2021/03/16 09:08:49;;;;;;;29.90;15.23;;;;;;;;;;5035032;28;20452;-50
2021/03/16 09:11:33;;;;;;;35.75;15.95;;;;;;;;;;5035066;28;20091;-49
2021/03/16 09:14:15;;;;;;;31.75;14.38;;;;;;;;;;5047637;28;20116;-45
2021/03/16 09:16:42;;;;;;;40.92;18.30;;;;;;;;;;5055351;28;20033;-47
2021/03/16 09:19:09;;;;;;;32.30;15.52;;;;;;;;;;5055067;28;20070;-47
2021/03/16 09:21:36;;;;;;;26.42;13.88;;;;;;;;;;5054985;28;20083;-47
2021/03/16 09:24:03;;;;;;;34.92;14.65;;;;;;;;;;5037655;28;20033;-48
2021/03/16 09:26:29;;;;;;;22.70;13.18;;;;;;;;;;5054721;28;20469;-45
2021/03/16 09:28:55;;;;;;;30.52;16.30;;;;;;;;;;5037015;28;20025;-55
2021/03/16 09:31:21;;;;;;;33.15;18.42;;;;;;;;;;5036331;28;20051;-53
2021/03/16 09:33:47;;;;;;;25.48;16.45;;;;;;;;;;5054489;28;20461;-53
2021/03/16 09:36:13;;;;;;;46.45;23.65;;;;;;;;;;5037061;28;20542;-50
2021/03/16 09:38:39;;;;;;;74.05;39.67;;;;;;;;;;5054639;28;20075;-51
2021/03/16 09:41:09;;;;;;;35.63;21.05;;;;;;;;;;5054672;28;20029;-45
2021/03/16 09:43:36;;;;;;;41.85;23.92;;;;;;;;;;5054350;28;20048;-46
2021/03/16 09:46:05;;;;;;;85.57;46.22;;;;;;;;;;5054454;28;20045;-47
2021/03/16 09:48:31;;;;;;;95.90;54.75;;;;;;;;;;5054474;28;20057;-45
2021/03/16 09:50:58;;;;;;;60.40;32.58;;;;;;;;;;5054536;28;20056;-50
2021/03/16 09:53:24;;;;;;;43.80;25.30;;;;;;;;;;5054385;28;20150;-46
2021/03/16 09:55:59;;;;;;;38.97;24.23;;;;;;;;;;5054289;28;20175;-49
2021/03/16 09:58:26;;;;;;;64.50;37.20;;;;;;;;;;5054266;28;20107;-50
2021/03/16 10:00:52;;;;;;;117.82;64.97;;;;;;;;;;5054463;28;20025;-49
2021/03/16 10:03:21;;;;;;;69.18;40.22;;;;;;;;;;5054258;28;20025;-45
2021/03/16 10:05:49;;;;;;;49.88;30.75;;;;;;;;;;5054086;28;20033;-44
2021/03/16 10:08:22;;;;;;;83.88;45.78;;;;;;;;;;5053940;28;20069;-49
2021/03/16 10:10:48;;;;;;;71.68;40.25;;;;;;;;;;5054227;28;20033;-50
2021/03/16 10:13:14;;;;;;;58.90;34.50;;;;;;;;;;5053186;28;20502;-45
2021/03/16 10:15:43;;;;;;;56.65;31.60;;;;;;;;;;5053966;28;20029;-46
2021/03/16 10:18:10;;;;;;;62.95;32.95;;;;;;;;;;5054133;28;20029;-50
2021/03/16 10:20:37;;;;;;;38.20;22.02;;;;;;;;;;5053981;28;20032;-49
2021/03/16 10:23:04;;;;;;;83.85;45.28;;;;;;;;;;5053989;28;20020;-49
2021/03/16 10:25:30;;;;;;;63.75;35.28;;;;;;;;;;5035933;28;20035;-46
2021/03/16 10:27:59;;;;;;;51.20;28.10;;;;;;;;;;5053834;28;20017;-49
2021/03/16 10:30:32;;;;;;;43.20;24.80;;;;;;;;;;5053808;28;20116;-49
2021/03/16 10:32:58;;;;;;;43.33;27.30;;;;;;;;;;5053808;28;20027;-47
2021/03/16 10:35:24;;;;;;;55.85;30.40;;;;;;;;;;5053556;28;20029;-46
2021/03/16 10:37:50;;;;;;;55.00;33.72;;;;;;;;;;5053808;28;20025;-50
2021/03/16 10:40:17;;;;;;;53.63;30.08;;;;;;;;;;5053633;28;20025;-49
2021/03/16 10:42:43;;;;;;;41.83;26.52;;;;;;;;;;5053597;28;20036;-51
2021/03/16 10:45:09;;;;;;;47.67;28.30;;;;;;;;;;5053729;28;20086;-47
2021/03/16 10:47:37;;;;;;;41.20;24.45;;;;;;;;;;5035560;28;20116;-51
2021/03/16 10:50:03;;;;;;;58.83;33.97;;;;;;;;;;5053519;28;20036;-51
2021/03/16 10:52:30;;;;;;;34.83;21.38;;;;;;;;;;5053489;28;20079;-52
2021/03/16 10:54:56;;;;;;;40.50;23.98;;;;;;;;;;5053485;28;20055;-52
2021/03/16 10:57:26;;;;;;;55.28;34.00;;;;;;;;;;5053356;28;20025;-49
2021/03/16 10:59:54;;;;;;;57.47;33.65;;;;;;;;;;5053248;28;20017;-49
2021/03/16 11:02:21;;;;;;;39.38;22.60;;;;;;;;;;5053137;28;20051;-51
2021/03/16 11:04:47;;;;;;;53.42;28.98;;;;;;;;;;5053627;28;20453;-50
2021/03/16 11:07:14;;;;;;;56.38;28.00;;;;;;;;;;5053230;28;20041;-49
2021/03/16 11:09:40;;;;;;;100.60;50.70;;;;;;;;;;5053279;28;20465;-51
2021/03/16 11:12:06;;;;;;;51.58;23.10;;;;;;;;;;5053266;28;20535;-49
2021/03/16 11:14:32;;;;;;;55.65;27.63;;;;;;;;;;5053443;28;20056;-52
2021/03/16 11:16:58;;;;;;;102.55;48.15;;;;;;;;;;5053495;28;20025;-52
2021/03/16 11:19:27;;;;;;;119.80;59.58;;;;;;;;;;5053151;28;20025;-48
2021/03/16 11:21:55;;;;;;;41.92;22.15;;;;;;;;;;5053136;28;20477;-46
2021/03/16 11:24:21;;;;;;;71.43;37.78;;;;;;;;;;5054104;28;20453;-47
2021/03/16 11:26:47;;;;;;;49.13;26.30;;;;;;;;;;5057226;28;20017;-46
2021/03/16 11:29:13;;;;;;;36.80;21.52;;;;;;;;;;5057332;28;20031;-55
2021/03/16 11:31:39;;;;;;;47.30;25.10;;;;;;;;;;5057075;28;20083;-53
2021/03/16 11:34:06;;;;;;;60.15;31.63;;;;;;;;;;5057073;28;20029;-55
2021/03/16 11:36:32;;;;;;;127.35;68.65;;;;;;;;;;5057036;28;20025;-52
2021/03/16 11:38:58;;;;;;;44.22;22.33;;;;;;;;;;5056825;28;20100;-48
2021/03/16 11:41:24;;;;;;;74.82;40.90;;;;;;;;;;5056810;28;20492;-53
2021/03/16 11:43:50;;;;;;;51.35;28.30;;;;;;;;;;5057073;28;20033;-47
2021/03/16 11:46:16;;;;;;;117.05;65.70;;;;;;;;;;5056953;28;20029;-46
2021/03/16 11:48:43;;;;;;;70.70;37.90;;;;;;;;;;5056694;28;20016;-44
2021/03/16 11:51:09;;;;;;;66.45;36.60;;;;;;;;;;5056694;28;20393;-48
2021/03/16 11:53:35;;;;;;;83.25;42.50;;;;;;;;;;5056619;28;20032;-43
2021/03/16 11:56:01;;;;;;;54.85;28.60;;;;;;;;;;5056834;28;20035;-45
2021/03/16 11:58:27;;;;;;;61.05;35.83;;;;;;;;;;5056799;28;20021;-43
2021/03/16 12:00:53;;;;;;;33.20;20.77;;;;;;;;;;5056873;28;20114;-43
2021/03/16 12:03:20;;;;;;;53.78;31.83;;;;;;;;;;5056620;28;20028;-44
2021/03/16 12:05:46;;;;;;;47.78;27.60;;;;;;;;;;5056748;28;20029;-46
2021/03/16 12:08:13;;;;;;;74.70;45.13;;;;;;;;;;5056306;28;20080;-46
2021/03/16 12:10:39;;;;;;;66.65;37.80;;;;;;;;;;5056868;28;20090;-47
2021/03/16 12:13:08;;;;;;;44.65;27.60;;;;;;;;;;5056629;28;20053;-51
2021/03/16 12:15:35;;;;;;;49.65;28.10;;;;;;;;;;5038414;28;20033;-47
2021/03/16 12:18:06;;;;;;;38.65;23.75;;;;;;;;;;5056257;28;20024;-49
2021/03/16 12:20:32;;;;;;;35.13;19.55;;;;;;;;;;5056673;28;20033;-45
2021/03/16 12:22:58;;;;;;;35.13;20.08;;;;;;;;;;5056294;28;20025;-44
2021/03/16 12:25:26;;;;;;;20.83;14.77;;;;;;;;;;5056120;28;20040;-48
2021/03/16 12:27:55;;;;;;;69.80;38.53;;;;;;;;;;5056075;28;20025;-53
2021/03/16 12:30:21;;;;;;;55.00;30.90;;;;;;;;;;5038100;28;20037;-53
2021/03/16 12:32:47;;;;;;;69.53;36.78;;;;;;;;;;5056000;28;20120;-55
2021/03/16 12:35:14;;;;;;;40.90;22.73;;;;;;;;;;5055977;28;20045;-55
2021/03/16 12:37:42;;;;;;;41.90;24.30;;;;;;;;;;5055297;28;20454;-52
2021/03/16 12:40:13;;;;;;;35.00;21.42;;;;;;;;;;5055613;28;20477;-57
2021/03/16 12:42:39;;;;;;;31.08;19.33;;;;;;;;;;5055685;28;20017;-55
2021/03/16 12:45:08;;;;;;;34.60;20.52;;;;;;;;;;5055931;28;20033;-52
2021/03/16 12:47:34;;;;;;;29.65;17.50;;;;;;;;;;5055832;28;20048;-53
2021/03/16 12:50:00;;;;;;;20.70;14.13;;;;;;;;;;5055706;28;20432;-56
2021/03/16 12:52:26;;;;;;;35.90;20.13;;;;;;;;;;5055597;28;20112;-45
2021/03/16 12:54:52;;;;;;;40.78;25.85;;;;;;;;;;5055356;28;20052;-47
2021/03/16 12:57:19;;;;;;;44.20;26.90;;;;;;;;;;5055524;28;20036;-48
2021/03/16 12:59:45;;;;;;;41.30;23.67;;;;;;;;;;5055510;28;20021;-48
2021/03/16 13:02:11;;;;;;;22.48;14.45;;;;;;;;;;5055358;28;20017;-48
2021/03/16 13:04:41;;;;;;;42.50;23.88;;;;;;;;;;5055200;28;20104;-51
2021/03/16 13:07:07;;;;;;;36.38;21.90;;;;;;;;;;5054953;28;20025;-49
2021/03/16 13:09:36;;;;;;;42.78;23.52;;;;;;;;;;5055239;28;20036;-51
2021/03/16 13:12:04;;;;;;;34.75;20.27;;;;;;;;;;5055307;28;20037;-50
2021/03/16 13:14:31;;;;;;;33.60;19.15;;;;;;;;;;5055012;28;20037;-50
2021/03/16 13:16:58;;;;;;;39.95;19.98;;;;;;;;;;5055038;28;20032;-51
2021/03/16 13:19:24;;;;;;;24.42;13.07;;;;;;;;;;5054973;28;20490;-45
2021/03/16 13:21:52;;;;;;;52.72;26.08;;;;;;;;;;5055119;28;20079;-48
2021/03/16 13:24:18;;;;;;;34.70;18.80;;;;;;;;;;5055217;28;20024;-46
2021/03/16 13:26:44;;;;;;;20.50;12.45;;;;;;;;;;5055205;28;20029;-47
2021/03/16 13:29:10;;;;;;;23.08;14.30;;;;;;;;;;5055156;28;20095;-49
2021/03/16 13:31:37;;;;;;;18.77;11.70;;;;;;;;;;5054926;28;20029;-48
2021/03/16 13:34:04;;;;;;;27.52;15.55;;;;;;;;;;5054870;28;20025;-52
2021/03/16 13:36:31;;;;;;;26.92;15.73;;;;;;;;;;5054899;28;20569;-47
2021/03/16 13:38:57;;;;;;;41.60;18.70;;;;;;;;;;5054681;28;20033;-48
2021/03/16 13:41:24;;;;;;;28.90;15.38;;;;;;;;;;5055074;28;20040;-47
2021/03/16 13:43:51;;;;;;;44.55;24.63;;;;;;;;;;5054837;28;20021;-49
2021/03/16 13:46:17;;;;;;;31.85;14.63;;;;;;;;;;5054738;28;20028;-47
2021/03/16 13:48:43;;;;;;;34.58;19.40;;;;;;;;;;5035708;28;20014;-48
2021/03/16 13:51:09;;;;;;;32.38;17.60;;;;;;;;;;5054319;28;20036;-51
2021/03/16 13:53:35;;;;;;;39.65;21.17;;;;;;;;;;5054335;28;20101;-47
2021/03/16 13:56:01;;;;;;;58.65;34.28;;;;;;;;;;5054590;28;20040;-47
2021/03/16 13:58:27;;;;;;;66.70;34.58;;;;;;;;;;5054298;28;20021;-49
2021/03/16 14:00:53;;;;;;;29.52;16.30;;;;;;;;;;5054738;28;20099;-46
2021/03/16 14:03:20;;;;;;;48.47;24.85;;;;;;;;;;5053907;28;20024;-49
2021/03/16 14:05:46;;;;;;;39.38;19.98;;;;;;;;;;5054218;28;20032;-48
2021/03/16 14:08:12;;;;;;;118.05;60.25;;;;;;;;;;5053951;28;20048;-49
2021/03/16 14:10:38;;;;;;;49.53;24.02;;;;;;;;;;5035942;28;20041;-52
2021/03/16 14:13:04;;;;;;;53.40;26.77;;;;;;;;;;5054271;28;20029;-50
2021/03/16 14:15:30;;;;;;;103.95;51.70;;;;;;;;;;5054067;28;20021;-46
2021/03/16 14:17:56;;;;;;;90.40;42.40;;;;;;;;;;5036303;28;20146;-50